Strona główna
METAR-TAF:

Lotnisko :

Doncaster Sheffield, Anglia

Port lotniczy Doncaster/Sheffield

Szerokość geograficzna: 53-29N, Długość geograficzna: 001-00W, wysokość: 17 m

Aktualna obserwacja pogody

Raport powstał 11 minut temu, godzina 09:20 UTC
Wiatr 8 kt od północno-północny zachód
Temperatura 11°C
Wilgotność 87%
Ciśnienie 1017 hPa
Widzialność 10 km lub więcej
Przerywane chmury na wysokości 700 ft

METAR: EGCN 290920Z 34008KT 9999 BKN007 11/09 Q1017

czas: 10:31 (09:31 UTC)

Prognoza

Raport powstał 25 minut temu, godzina 09:06 UTC
Prognoza ważna od 29 godzina 09 UTC do 30 godzina 06 UTC
Wiatr 5 kt od północno-północny wschód
Widzialność 10 km lub więcej
Przerywane chmury na wysokości 600 ft
Stopniowe zmiany
od 29 godzina 09 UTC do 29 godzina 12 UTC
Mało chmury na wysokości 900 ft
Stopniowe zmiany
od 29 godzina 21 UTC do 29 godzina 24 UTC
Widzialność: 8000 m
Przerywane chmury na wysokości 800 ft

TAF: EGCN 290906Z 2909/3006 02005KT 9999 BKN006 BECMG 2909/2912 FEW009 BECMG 2921/2924 8000 BKN008

METAR-TAF

Obserwacja i prognoza pogody dla ponad 4000 lotnisk (raport METAR i TAF).

Dostępne stacje oznaczono żółtymi i czerwonymi punktami na mapie.

Najedź kursorem aby zobaczyć nazwę stacji.

Kliknij aby zobaczyć obserwacje i prognozy pogody.

Aby zmienić mapę: kliknij na zielony przycisk z czarnym krzyżykiem, aby powiększyć; na zielony przycisk z myślnikiem, aby pomniejszyć; na zielone strzałki, aby przejść do map sąsiednich.


METAR-TAF: